Time;durP1;ratioP1;P1;durP2;ratioP2;P2;SDS_P1;SDS_P2;PMS_P1;PMS_P2;Temp;Humidity;BMP_temperature;BMP_pressure;BME280_temperature;BME280_humidity;BME280_pressure;Samples;Min_cycle;Max_cycle;Signal;HPM_P1;HPM_P2
2022/12/26 00:09:39;;;;;;;32.03;17.80;;;;;;;;;;5068481;28;20395;-64
2022/12/26 00:12:05;;;;;;;29.70;18.15;;;;;;;;;;5068378;28;20028;-63
2022/12/26 06:20:09;;;;;;;37.80;23.42;;;;;;;;;;4993902;23;20067;-64
2022/12/26 06:22:35;;;;;;;39.95;24.65;;;;;;;;;;4936809;29;20043;-64
2022/12/26 06:25:01;;;;;;;42.10;24.70;;;;;;;;;;4954286;29;20031;-67
2022/12/26 06:27:27;;;;;;;48.72;26.42;;;;;;;;;;4954720;29;20031;-62
2022/12/26 06:29:53;;;;;;;49.75;28.33;;;;;;;;;;4954900;29;20751;-62
2022/12/26 06:32:19;;;;;;;49.75;29.00;;;;;;;;;;4954479;29;20024;-62
2022/12/26 06:34:46;;;;;;;48.85;28.98;;;;;;;;;;4954516;29;20038;-62
2022/12/26 06:37:12;;;;;;;47.92;27.70;;;;;;;;;;4954391;29;20038;-62
2022/12/26 06:39:38;;;;;;;48.55;28.58;;;;;;;;;;4953871;29;20082;-62
2022/12/26 06:42:04;;;;;;;54.30;30.05;;;;;;;;;;4952678;29;20023;-60
2022/12/26 06:44:30;;;;;;;49.70;27.42;;;;;;;;;;4952651;29;20043;-67
2022/12/26 06:46:56;;;;;;;48.47;27.92;;;;;;;;;;4952823;29;20102;-64
2022/12/26 06:49:25;;;;;;;48.22;28.55;;;;;;;;;;4952636;29;20468;-62
2022/12/26 06:51:51;;;;;;;48.45;27.73;;;;;;;;;;4952463;29;20022;-61
2022/12/26 06:54:17;;;;;;;50.75;28.25;;;;;;;;;;4951914;29;20031;-62
2022/12/26 06:56:43;;;;;;;48.63;29.20;;;;;;;;;;4952116;29;20093;-61
2022/12/26 06:59:10;;;;;;;49.58;28.83;;;;;;;;;;4952375;29;20029;-61
2022/12/26 07:01:36;;;;;;;47.58;26.98;;;;;;;;;;4953160;29;20609;-61
2022/12/26 07:04:03;;;;;;;45.08;26.10;;;;;;;;;;4953817;29;20031;-61
2022/12/26 07:06:33;;;;;;;47.58;26.45;;;;;;;;;;4953441;29;20102;-65
2022/12/26 07:09:01;;;;;;;49.60;27.30;;;;;;;;;;4950011;29;20039;-61
2022/12/26 07:11:28;;;;;;;47.20;27.73;;;;;;;;;;4952025;29;20110;-64
2022/12/26 07:13:55;;;;;;;48.90;27.23;;;;;;;;;;4952423;29;20098;-61
2022/12/26 07:16:21;;;;;;;54.17;28.38;;;;;;;;;;4952053;29;20027;-60
2022/12/26 07:18:47;;;;;;;54.08;29.08;;;;;;;;;;4959158;28;20051;-60
2022/12/26 07:21:15;;;;;;;56.10;32.17;;;;;;;;;;4971550;28;20817;-66
2022/12/26 07:23:41;;;;;;;51.15;28.33;;;;;;;;;;4971736;28;20027;-60
2022/12/26 07:26:07;;;;;;;50.95;29.15;;;;;;;;;;4971206;28;20033;-61
2022/12/26 07:28:33;;;;;;;51.75;30.65;;;;;;;;;;4971437;28;20034;-64
2022/12/26 07:30:59;;;;;;;54.45;32.45;;;;;;;;;;4971687;28;20102;-64
2022/12/26 07:33:29;;;;;;;55.88;30.83;;;;;;;;;;4971383;28;20071;-60
2022/12/26 07:36:05;;;;;;;56.95;31.80;;;;;;;;;;4968873;28;20023;-59
2022/12/26 07:38:34;;;;;;;54.63;33.72;;;;;;;;;;4971184;28;20062;-62
2022/12/26 07:41:56;;;;;;;59.75;33.03;;;;;;;;;;4971219;28;20387;-60
2022/12/26 07:43:49;;;;;;;74.05;40.10;;;;;;;;;;4967834;28;20027;-61
2022/12/26 07:46:15;;;;;;;66.55;35.30;;;;;;;;;;4971778;28;20082;-60
2022/12/26 07:48:41;;;;;;;63.45;33.38;;;;;;;;;;4970982;28;20043;-60
2022/12/26 07:51:07;;;;;;;64.25;33.28;;;;;;;;;;4971281;28;20023;-60
2022/12/26 07:53:33;;;;;;;61.97;34.50;;;;;;;;;;4971196;28;20540;-61
2022/12/26 07:55:59;;;;;;;69.40;36.03;;;;;;;;;;4968670;28;20076;-62
2022/12/26 07:58:25;;;;;;;88.22;47.65;;;;;;;;;;4953178;28;20406;-61
2022/12/26 08:00:51;;;;;;;71.47;38.65;;;;;;;;;;4970961;28;20027;-71
2022/12/26 08:03:17;;;;;;;81.63;41.63;;;;;;;;;;4970691;28;20035;-61
2022/12/26 08:05:48;;;;;;;75.72;41.10;;;;;;;;;;4970753;28;20062;-61
2022/12/26 08:08:14;;;;;;;62.63;34.95;;;;;;;;;;4971646;28;20035;-67
2022/12/26 08:10:40;;;;;;;66.43;35.28;;;;;;;;;;4970656;28;20038;-62
2022/12/26 08:13:06;;;;;;;70.13;38.25;;;;;;;;;;4971993;28;20035;-60
2022/12/26 08:15:32;;;;;;;89.65;44.47;;;;;;;;;;4971865;28;20031;-62
2022/12/26 08:17:58;;;;;;;74.15;35.90;;;;;;;;;;4971514;28;20038;-67
2022/12/26 08:20:24;;;;;;;74.75;38.33;;;;;;;;;;4954039;28;20043;-67
2022/12/26 08:22:50;;;;;;;70.88;39.97;;;;;;;;;;4971657;28;20576;-68
2022/12/26 08:25:16;;;;;;;62.35;34.72;;;;;;;;;;4972216;28;20066;-60
2022/12/26 08:27:42;;;;;;;63.25;35.28;;;;;;;;;;4972180;28;20027;-65
2022/12/26 08:30:09;;;;;;;67.15;34.97;;;;;;;;;;4973035;28;20065;-68
2022/12/26 08:32:35;;;;;;;64.68;34.97;;;;;;;;;;4975116;28;20033;-67
2022/12/26 08:35:02;;;;;;;65.05;35.85;;;;;;;;;;4974535;28;20027;-60
2022/12/26 08:37:28;;;;;;;67.28;38.88;;;;;;;;;;4972273;28;20023;-61
2022/12/26 08:39:54;;;;;;;69.97;40.53;;;;;;;;;;4975527;28;20110;-62
2022/12/26 08:42:20;;;;;;;71.10;41.30;;;;;;;;;;4975845;28;20103;-60
2022/12/26 08:44:46;;;;;;;77.72;43.90;;;;;;;;;;4975242;28;20035;-62
2022/12/26 08:47:13;;;;;;;82.63;44.90;;;;;;;;;;4974929;28;20460;-61
2022/12/26 08:49:39;;;;;;;79.85;44.30;;;;;;;;;;4975458;28;20070;-62
2022/12/26 08:52:05;;;;;;;70.55;41.53;;;;;;;;;;4974875;28;20082;-59
2022/12/26 08:54:31;;;;;;;56.60;30.63;;;;;;;;;;4975664;28;20030;-64
2022/12/26 08:56:57;;;;;;;69.25;38.20;;;;;;;;;;4975248;28;20107;-65
2022/12/26 08:59:23;;;;;;;66.85;39.28;;;;;;;;;;4975453;28;20141;-66
2022/12/26 09:01:49;;;;;;;74.68;44.47;;;;;;;;;;4975354;28;20073;-60
2022/12/26 09:04:15;;;;;;;74.57;44.72;;;;;;;;;;4975307;28;20081;-60
2022/12/26 09:06:41;;;;;;;83.20;48.92;;;;;;;;;;4974936;28;20050;-66
2022/12/26 09:09:10;;;;;;;79.70;46.65;;;;;;;;;;4974901;28;20478;-65
2022/12/26 09:11:36;;;;;;;79.47;46.35;;;;;;;;;;4975145;28;20050;-60
2022/12/26 09:14:03;;;;;;;84.53;47.40;;;;;;;;;;4957272;28;20039;-60
2022/12/26 09:16:38;;;;;;;78.35;45.40;;;;;;;;;;4971312;28;20043;-60
2022/12/26 09:19:05;;;;;;;82.95;49.22;;;;;;;;;;4973634;28;20050;-60
2022/12/26 09:21:31;;;;;;;94.22;50.85;;;;;;;;;;4974918;28;20113;-62
2022/12/26 09:24:04;;;;;;;96.68;54.88;;;;;;;;;;4974782;28;20034;-61
2022/12/26 09:26:31;;;;;;;99.80;57.95;;;;;;;;;;4973825;28;20077;-62
2022/12/26 09:28:57;;;;;;;98.28;57.58;;;;;;;;;;4973553;28;20493;-62
2022/12/26 09:31:28;;;;;;;95.35;56.40;;;;;;;;;;4970969;28;20030;-63
2022/12/26 09:33:54;;;;;;;95.40;57.15;;;;;;;;;;4973444;28;20058;-67
2022/12/26 09:36:24;;;;;;;93.93;55.20;;;;;;;;;;4973361;28;20065;-61
2022/12/26 09:38:50;;;;;;;88.00;53.55;;;;;;;;;;4973557;28;20386;-61
2022/12/26 09:41:25;;;;;;;84.57;52.03;;;;;;;;;;4972856;28;20019;-61
2022/12/26 09:43:54;;;;;;;84.75;50.60;;;;;;;;;;4971954;28;20386;-61
2022/12/26 09:46:36;;;;;;;95.60;53.80;;;;;;;;;;4972971;28;20061;-63
2022/12/26 09:49:08;;;;;;;94.85;54.45;;;;;;;;;;4973280;28;20043;-61
2022/12/26 09:51:34;;;;;;;92.28;51.53;;;;;;;;;;4975059;28;20491;-62
2022/12/26 09:54:03;;;;;;;86.47;50.53;;;;;;;;;;4974321;28;20066;-63
2022/12/26 09:56:29;;;;;;;80.50;47.70;;;;;;;;;;4986776;28;20026;-60
2022/12/26 09:58:58;;;;;;;91.32;49.63;;;;;;;;;;4980368;28;20033;-66
2022/12/26 10:01:28;;;;;;;75.93;45.83;;;;;;;;;;4984369;28;20023;-60
2022/12/26 10:03:56;;;;;;;75.03;45.28;;;;;;;;;;4978650;28;20073;-61
2022/12/26 10:06:23;;;;;;;86.55;47.85;;;;;;;;;;4990278;28;20025;-64
2022/12/26 10:08:52;;;;;;;74.43;45.28;;;;;;;;;;4986414;28;20389;-66
2022/12/26 10:11:37;;;;;;;72.32;43.13;;;;;;;;;;4959966;28;20062;-65
2022/12/26 10:14:05;;;;;;;76.68;42.85;;;;;;;;;;4963493;28;20026;-63
2022/12/26 10:16:34;;;;;;;69.18;41.60;;;;;;;;;;4985079;28;20533;-67
2022/12/26 10:19:11;;;;;;;70.35;42.50;;;;;;;;;;4981345;28;20138;-60
2022/12/26 10:21:46;;;;;;;74.63;45.45;;;;;;;;;;4979483;28;20427;-63
2022/12/26 10:24:15;;;;;;;83.85;50.08;;;;;;;;;;4982312;28;20534;-60
2022/12/26 10:26:43;;;;;;;82.13;49.42;;;;;;;;;;4979869;28;20033;-62
2022/12/26 10:29:09;;;;;;;76.63;47.70;;;;;;;;;;4975954;28;20042;-60
2022/12/26 10:31:41;;;;;;;81.22;49.05;;;;;;;;;;4971931;28;20056;-61
2022/12/26 10:34:12;;;;;;;84.82;50.55;;;;;;;;;;4973890;28;20069;-62
2022/12/26 10:36:43;;;;;;;87.47;52.58;;;;;;;;;;4977581;28;20027;-69
2022/12/26 10:39:28;;;;;;;90.13;53.13;;;;;;;;;;4975081;28;20086;-63
2022/12/26 10:41:56;;;;;;;83.43;50.15;;;;;;;;;;4975187;28;20448;-64
2022/12/26 10:44:22;;;;;;;83.88;49.00;;;;;;;;;;4974724;28;20034;-63
2022/12/26 10:46:54;;;;;;;77.78;47.63;;;;;;;;;;4973939;28;20110;-67
2022/12/26 10:49:22;;;;;;;74.63;47.13;;;;;;;;;;4974201;28;20039;-67
2022/12/26 10:51:49;;;;;;;79.80;48.10;;;;;;;;;;4973001;28;20102;-64
2022/12/26 10:54:17;;;;;;;78.25;49.10;;;;;;;;;;4958546;28;20068;-65
2022/12/26 10:56:48;;;;;;;76.78;48.30;;;;;;;;;;4973335;28;20026;-63
2022/12/26 10:59:16;;;;;;;75.15;47.10;;;;;;;;;;4972697;28;20402;-62
2022/12/26 11:01:46;;;;;;;73.60;46.65;;;;;;;;;;4953190;28;20409;-62
2022/12/26 11:04:15;;;;;;;69.05;42.92;;;;;;;;;;4972907;28;20382;-64
2022/12/26 11:06:42;;;;;;;68.10;40.47;;;;;;;;;;4971484;28;20031;-62
2022/12/26 11:09:22;;;;;;;66.13;42.65;;;;;;;;;;4971310;28;20039;-63
2022/12/26 11:11:51;;;;;;;66.13;41.33;;;;;;;;;;4969628;28;20023;-63
2022/12/26 11:14:36;;;;;;;65.40;40.42;;;;;;;;;;4973088;28;20042;-61
2022/12/26 11:17:22;;;;;;;63.20;39.33;;;;;;;;;;4972598;28;20100;-73
2022/12/26 11:19:48;;;;;;;64.00;38.05;;;;;;;;;;4953273;28;20066;-72
2022/12/26 11:22:27;;;;;;;63.30;35.88;;;;;;;;;;4972630;28;20019;-63
2022/12/26 11:25:08;;;;;;;57.42;35.70;;;;;;;;;;4972567;28;20035;-73
2022/12/26 11:27:35;;;;;;;55.15;34.65;;;;;;;;;;4954366;28;20030;-63
2022/12/26 11:30:27;;;;;;;50.75;32.58;;;;;;;;;;4971664;28;20106;-71
2022/12/26 11:33:09;;;;;;;55.13;33.63;;;;;;;;;;4968818;28;20034;-63
2022/12/26 11:35:36;;;;;;;57.28;33.85;;;;;;;;;;4972116;28;20038;-70
2022/12/26 11:38:03;;;;;;;55.20;35.33;;;;;;;;;;4972364;28;20022;-62
2022/12/26 11:41:30;;;;;;;60.30;35.05;;;;;;;;;;4972339;28;20490;-62
2022/12/26 11:43:26;;;;;;;56.80;33.75;;;;;;;;;;4984120;28;20043;-66
2022/12/26 11:45:52;;;;;;;52.08;32.55;;;;;;;;;;4972336;28;20485;-62
2022/12/26 11:48:21;;;;;;;55.30;34.10;;;;;;;;;;4972322;28;20122;-64
2022/12/26 11:50:47;;;;;;;51.53;32.63;;;;;;;;;;4972093;28;20026;-62
2022/12/26 11:53:16;;;;;;;50.65;33.90;;;;;;;;;;4972202;28;20470;-63
2022/12/26 11:55:42;;;;;;;55.22;34.05;;;;;;;;;;4972044;28;20027;-60
2022/12/26 11:58:08;;;;;;;58.70;35.13;;;;;;;;;;4972305;28;20031;-61
2022/12/26 12:00:42;;;;;;;55.55;35.08;;;;;;;;;;4971964;28;20504;-72
2022/12/26 12:03:28;;;;;;;53.75;34.25;;;;;;;;;;4971713;28;20031;-63
2022/12/26 12:05:54;;;;;;;53.53;34.13;;;;;;;;;;4958524;28;20493;-62
2022/12/26 12:08:26;;;;;;;53.17;34.25;;;;;;;;;;4972033;28;20031;-62
2022/12/26 12:10:55;;;;;;;52.22;33.67;;;;;;;;;;4971647;28;20066;-61
2022/12/26 12:13:24;;;;;;;53.80;33.13;;;;;;;;;;4972112;28;20026;-62
2022/12/26 12:15:57;;;;;;;51.20;33.10;;;;;;;;;;4971752;28;20031;-62
2022/12/26 12:18:35;;;;;;;53.80;33.38;;;;;;;;;;4971638;28;20051;-62
2022/12/26 12:21:16;;;;;;;50.22;31.48;;;;;;;;;;4972238;28;20027;-66
2022/12/26 12:23:45;;;;;;;55.58;32.17;;;;;;;;;;4972362;28;20102;-62
2022/12/26 12:26:16;;;;;;;50.08;31.08;;;;;;;;;;4972116;28;20035;-62
2022/12/26 12:28:45;;;;;;;46.13;30.25;;;;;;;;;;4971805;28;20129;-62
2022/12/26 12:31:20;;;;;;;44.95;28.10;;;;;;;;;;4971991;28;20077;-72
2022/12/26 12:33:52;;;;;;;47.85;29.17;;;;;;;;;;4972130;28;20042;-63
2022/12/26 12:36:24;;;;;;;46.95;29.98;;;;;;;;;;4971692;28;20050;-62
2022/12/26 12:39:09;;;;;;;44.78;27.95;;;;;;;;;;4971670;28;20440;-64
2022/12/26 12:41:56;;;;;;;41.97;26.60;;;;;;;;;;4971842;28;20039;-62
2022/12/26 12:44:27;;;;;;;42.97;26.33;;;;;;;;;;4971778;28;20105;-61
2022/12/26 12:46:59;;;;;;;43.55;25.85;;;;;;;;;;4971637;28;20105;-65
2022/12/26 12:49:37;;;;;;;42.95;24.58;;;;;;;;;;4971200;28;20137;-70
2022/12/26 12:52:25;;;;;;;39.17;22.92;;;;;;;;;;4972049;28;20047;-67
2022/12/26 12:55:00;;;;;;;37.75;22.30;;;;;;;;;;4971794;28;20034;-62
2022/12/26 12:57:43;;;;;;;32.25;20.17;;;;;;;;;;4971661;28;20023;-62
2022/12/26 13:00:15;;;;;;;34.30;19.30;;;;;;;;;;4971364;28;20035;-63
2022/12/26 13:02:45;;;;;;;33.88;20.73;;;;;;;;;;4972704;28;20065;-68
2022/12/26 13:05:16;;;;;;;35.83;21.80;;;;;;;;;;4972187;28;20031;-65
2022/12/26 13:07:47;;;;;;;37.90;21.83;;;;;;;;;;4971057;28;20030;-61
2022/12/26 13:10:19;;;;;;;37.10;21.15;;;;;;;;;;4971329;28;20486;-62
2022/12/26 13:12:46;;;;;;;39.22;22.27;;;;;;;;;;4971443;28;20073;-62
2022/12/26 13:15:29;;;;;;;33.50;21.75;;;;;;;;;;4972369;28;20035;-66
2022/12/26 13:18:00;;;;;;;36.45;22.17;;;;;;;;;;4975572;28;20506;-68
2022/12/26 13:20:37;;;;;;;34.05;22.33;;;;;;;;;;4980602;28;20121;-65
2022/12/26 13:26:08;;;;;;;36.42;23.00;;;;;;;;;;4975017;28;20122;-69
2022/12/26 13:28:38;;;;;;;38.92;24.30;;;;;;;;;;4967127;28;20045;-68
2022/12/26 13:31:04;;;;;;;36.90;23.00;;;;;;;;;;4974425;28;20031;-66
2022/12/26 13:33:30;;;;;;;37.35;23.45;;;;;;;;;;4974739;28;20039;-67
2022/12/26 13:35:58;;;;;;;34.60;22.02;;;;;;;;;;4974934;28;20426;-61
2022/12/26 13:38:26;;;;;;;35.60;22.05;;;;;;;;;;4974806;28;20081;-62
2022/12/26 13:43:53;;;;;;;37.42;22.63;;;;;;;;;;4974625;28;20483;-62
2022/12/26 13:43:59;;;;;;;33.90;21.75;;;;;;;;;;4974472;28;20034;-62
2022/12/26 13:46:35;;;;;;;38.75;22.98;;;;;;;;;;4974335;28;20049;-65
2022/12/26 13:49:01;;;;;;;38.38;23.40;;;;;;;;;;4974388;28;20047;-62
2022/12/26 13:51:44;;;;;;;38.40;23.75;;;;;;;;;;4974293;28;20027;-66
2022/12/26 13:54:11;;;;;;;40.67;24.98;;;;;;;;;;4974055;28;20133;-66
2022/12/26 13:56:40;;;;;;;42.53;26.17;;;;;;;;;;4954495;28;20075;-67
2022/12/26 13:59:06;;;;;;;43.67;26.10;;;;;;;;;;4972505;28;20035;-62
2022/12/26 14:01:51;;;;;;;44.67;27.15;;;;;;;;;;4976841;28;20019;-65
2022/12/26 14:04:36;;;;;;;44.95;26.42;;;;;;;;;;4971943;28;20482;-68
2022/12/26 14:07:02;;;;;;;44.13;27.20;;;;;;;;;;4972106;28;20105;-63
2022/12/26 14:09:31;;;;;;;46.42;28.13;;;;;;;;;;4973440;28;20037;-61
2022/12/26 14:12:15;;;;;;;48.22;28.60;;;;;;;;;;4972886;28;20066;-64
2022/12/26 14:14:53;;;;;;;53.63;30.13;;;;;;;;;;4973350;28;20140;-61
2022/12/26 14:17:32;;;;;;;54.50;30.75;;;;;;;;;;4973065;28;20035;-66
2022/12/26 14:20:11;;;;;;;56.63;31.83;;;;;;;;;;4972669;28;20046;-62
2022/12/26 14:22:57;;;;;;;56.15;32.17;;;;;;;;;;4973116;28;20022;-62
2022/12/26 14:25:41;;;;;;;57.38;33.80;;;;;;;;;;4973488;28;20038;-62
2022/12/26 14:28:10;;;;;;;53.58;32.92;;;;;;;;;;4973079;28;20035;-61
2022/12/26 14:31:12;;;;;;;57.35;34.03;;;;;;;;;;4972628;28;20377;-62
2022/12/26 14:33:54;;;;;;;61.15;34.88;;;;;;;;;;4885642;29;20025;-68
2022/12/26 14:36:26;;;;;;;44.42;26.08;;;;;;;;;;4867079;29;20071;-62
2022/12/26 14:39:03;;;;;;;62.50;36.40;;;;;;;;;;4866078;29;20566;-63
2022/12/26 14:44:33;;;;;;;65.00;38.45;;;;;;;;;;4874169;29;20135;-67
2022/12/26 14:47:00;;;;;;;67.28;38.72;;;;;;;;;;4875066;29;20452;-68
2022/12/26 14:49:32;;;;;;;61.88;37.22;;;;;;;;;;4880964;29;20076;-63
2022/12/26 14:52:17;;;;;;;64.55;38.70;;;;;;;;;;4874729;29;20791;-66
2022/12/26 14:54:45;;;;;;;65.93;38.10;;;;;;;;;;4874495;29;20209;-62
2022/12/26 14:57:30;;;;;;;63.20;37.22;;;;;;;;;;4875081;29;20021;-67
2022/12/26 15:00:22;;;;;;;64.70;38.88;;;;;;;;;;4875116;29;20213;-61
2022/12/26 15:03:11;;;;;;;64.63;38.92;;;;;;;;;;4875321;29;20509;-64
2022/12/26 15:05:38;;;;;;;70.55;41.33;;;;;;;;;;4874464;29;20142;-71
2022/12/26 15:08:04;;;;;;;74.28;43.35;;;;;;;;;;4943570;28;20444;-63
2022/12/26 15:10:49;;;;;;;75.18;43.72;;;;;;;;;;4972783;28;20378;-65
2022/12/26 15:13:33;;;;;;;82.72;45.97;;;;;;;;;;4969661;28;20114;-64
2022/12/26 15:16:12;;;;;;;81.22;46.88;;;;;;;;;;4983035;28;20031;-66
2022/12/26 15:18:56;;;;;;;89.53;46.17;;;;;;;;;;4982890;28;20116;-64
2022/12/26 15:21:31;;;;;;;83.03;45.10;;;;;;;;;;4974766;28;20069;-67
2022/12/26 15:24:07;;;;;;;86.28;46.92;;;;;;;;;;4983465;28;20517;-71
2022/12/26 15:26:33;;;;;;;85.72;45.67;;;;;;;;;;4980680;28;20393;-65
2022/12/26 15:29:14;;;;;;;82.82;45.47;;;;;;;;;;4986562;28;20042;-61
2022/12/26 15:31:43;;;;;;;80.78;44.78;;;;;;;;;;4960060;28;20034;-68
2022/12/26 15:34:25;;;;;;;86.65;46.45;;;;;;;;;;4979599;28;20023;-62
2022/12/26 15:36:53;;;;;;;80.78;46.85;;;;;;;;;;4975392;28;20099;-62
2022/12/26 15:39:25;;;;;;;86.60;48.47;;;;;;;;;;4968247;28;20133;-62
2022/12/26 15:42:10;;;;;;;60.25;34.53;;;;;;;;;;4972004;28;20751;-63
2022/12/26 15:44:42;;;;;;;79.13;42.85;;;;;;;;;;4976948;28;20294;-67
2022/12/26 15:47:20;;;;;;;84.03;44.92;;;;;;;;;;4975662;28;20034;-69
2022/12/26 15:49:53;;;;;;;82.45;47.25;;;;;;;;;;4958423;28;20077;-67
2022/12/26 15:52:32;;;;;;;80.93;46.15;;;;;;;;;;4968779;28;20041;-63
2022/12/26 15:54:58;;;;;;;80.70;43.88;;;;;;;;;;4986352;28;20026;-65
2022/12/26 15:57:36;;;;;;;82.95;45.00;;;;;;;;;;4975003;28;20034;-63
2022/12/26 16:00:08;;;;;;;82.60;46.78;;;;;;;;;;4984790;28;20496;-64
2022/12/26 16:02:41;;;;;;;83.45;47.40;;;;;;;;;;4982811;28;20034;-64
2022/12/26 16:05:10;;;;;;;86.05;47.28;;;;;;;;;;4976006;28;20035;-68
2022/12/26 16:07:39;;;;;;;94.85;52.75;;;;;;;;;;4977419;28;20026;-69
2022/12/26 16:10:23;;;;;;;87.57;50.80;;;;;;;;;;4984565;28;20359;-68
2022/12/26 16:12:59;;;;;;;85.80;49.70;;;;;;;;;;4984539;28;20104;-64
2022/12/26 16:15:25;;;;;;;83.10;46.20;;;;;;;;;;4973848;28;20023;-66
2022/12/26 16:17:51;;;;;;;79.28;44.00;;;;;;;;;;4979902;28;20079;-66
2022/12/26 16:22:42;;;;;;;74.55;42.42;;;;;;;;;;4971220;28;20043;-68
2022/12/26 16:23:04;;;;;;;70.22;42.20;;;;;;;;;;4968805;28;20125;-63
2022/12/26 16:25:30;;;;;;;68.25;38.67;;;;;;;;;;4971229;28;20034;-71
2022/12/26 16:27:58;;;;;;;60.65;36.58;;;;;;;;;;4971059;28;20034;-62
2022/12/26 16:30:28;;;;;;;65.80;38.13;;;;;;;;;;4971011;28;20137;-66
2022/12/26 16:32:54;;;;;;;62.78;38.72;;;;;;;;;;4971898;28;20364;-69
2022/12/26 16:35:33;;;;;;;66.57;38.85;;;;;;;;;;4973209;28;20038;-63
2022/12/26 16:38:01;;;;;;;62.88;35.20;;;;;;;;;;4971902;28;20027;-62
2022/12/26 16:40:31;;;;;;;58.50;34.50;;;;;;;;;;4971858;28;20034;-63
2022/12/26 16:42:59;;;;;;;61.15;36.10;;;;;;;;;;4942183;28;20031;-68
2022/12/26 16:45:26;;;;;;;61.97;35.90;;;;;;;;;;4971535;28;20038;-63
2022/12/26 16:47:53;;;;;;;59.00;33.75;;;;;;;;;;4971464;28;20034;-63
2022/12/26 16:50:20;;;;;;;59.78;34.83;;;;;;;;;;4971882;28;20573;-62
2022/12/26 16:52:46;;;;;;;63.00;34.80;;;;;;;;;;4975027;28;20031;-62
2022/12/26 16:55:36;;;;;;;67.18;36.47;;;;;;;;;;4975276;28;20114;-63
2022/12/26 16:58:04;;;;;;;65.05;37.40;;;;;;;;;;4877669;29;20089;-62
2022/12/26 17:00:31;;;;;;;64.05;37.80;;;;;;;;;;4877814;29;20110;-67
2022/12/26 17:02:59;;;;;;;67.95;39.33;;;;;;;;;;4877445;29;20037;-62
2022/12/26 17:05:32;;;;;;;81.05;45.20;;;;;;;;;;4877780;29;20112;-64
2022/12/26 17:08:00;;;;;;;80.50;46.50;;;;;;;;;;4877605;29;20117;-66
2022/12/26 17:10:34;;;;;;;74.82;43.25;;;;;;;;;;4877625;29;20041;-64
2022/12/26 17:13:02;;;;;;;86.45;48.10;;;;;;;;;;4877465;29;20029;-62
2022/12/26 17:15:30;;;;;;;89.10;51.38;;;;;;;;;;4877295;29;20048;-63
2022/12/26 17:17:57;;;;;;;101.88;53.67;;;;;;;;;;4876820;29;20143;-60
2022/12/26 17:20:23;;;;;;;87.70;49.30;;;;;;;;;;4877382;29;20063;-70
2022/12/26 17:22:56;;;;;;;85.97;47.53;;;;;;;;;;4879383;29;20049;-66
2022/12/26 17:25:25;;;;;;;78.32;44.55;;;;;;;;;;4877536;29;20088;-66
2022/12/26 17:28:13;;;;;;;83.05;44.28;;;;;;;;;;4876800;29;20041;-69
2022/12/26 17:30:44;;;;;;;89.57;46.13;;;;;;;;;;4877465;29;20189;-69
2022/12/26 17:33:11;;;;;;;78.53;44.10;;;;;;;;;;4877350;29;20513;-68
2022/12/26 17:35:38;;;;;;;96.97;49.47;;;;;;;;;;4949739;28;20057;-68
2022/12/26 17:38:09;;;;;;;87.05;46.58;;;;;;;;;;4975735;28;20026;-69
2022/12/26 17:40:37;;;;;;;88.20;47.70;;;;;;;;;;4957375;28;20023;-68
2022/12/26 17:43:12;;;;;;;84.20;45.58;;;;;;;;;;4974562;28;20089;-68
2022/12/26 17:45:39;;;;;;;86.85;46.55;;;;;;;;;;4974024;28;20038;-65
2022/12/26 17:48:05;;;;;;;84.32;42.78;;;;;;;;;;4974554;28;20035;-61
2022/12/26 17:50:33;;;;;;;73.95;40.50;;;;;;;;;;4974413;28;20030;-68
2022/12/26 17:53:04;;;;;;;75.78;40.70;;;;;;;;;;4974162;28;20034;-61
2022/12/26 17:55:30;;;;;;;72.63;40.25;;;;;;;;;;4974434;28;20054;-61
2022/12/26 17:57:56;;;;;;;74.35;40.72;;;;;;;;;;4974376;28;20034;-69
2022/12/26 18:00:24;;;;;;;72.05;40.78;;;;;;;;;;4974192;28;20030;-61
2022/12/26 18:02:50;;;;;;;71.53;40.20;;;;;;;;;;5004130;28;20026;-68
2022/12/26 18:05:17;;;;;;;81.72;44.92;;;;;;;;;;4994011;28;20147;-63
2022/12/26 18:07:43;;;;;;;86.68;45.20;;;;;;;;;;4993418;28;20023;-61
2022/12/26 18:10:17;;;;;;;85.53;44.70;;;;;;;;;;4993750;28;20474;-61
2022/12/26 18:12:43;;;;;;;87.65;44.92;;;;;;;;;;4993538;28;20041;-68
2022/12/26 18:15:09;;;;;;;82.72;44.20;;;;;;;;;;4993656;28;20038;-68
2022/12/26 18:17:35;;;;;;;75.40;41.65;;;;;;;;;;4993394;28;20096;-70
2022/12/26 18:20:05;;;;;;;74.60;41.03;;;;;;;;;;4993374;28;20054;-62
2022/12/26 18:22:31;;;;;;;70.85;39.85;;;;;;;;;;4992974;28;20026;-70
2022/12/26 18:24:57;;;;;;;72.18;38.10;;;;;;;;;;4993465;28;20037;-68
2022/12/26 18:27:29;;;;;;;70.18;40.38;;;;;;;;;;5001407;28;20030;-67
2022/12/26 18:29:56;;;;;;;70.90;39.17;;;;;;;;;;4963875;28;20045;-62
2022/12/26 18:32:24;;;;;;;72.65;38.55;;;;;;;;;;4993020;28;20031;-63
2022/12/26 18:34:51;;;;;;;70.18;37.63;;;;;;;;;;4993248;28;20033;-69
2022/12/26 18:37:17;;;;;;;71.72;36.83;;;;;;;;;;4993114;28;20033;-61
2022/12/26 18:39:43;;;;;;;66.20;36.10;;;;;;;;;;4990869;28;20030;-59
2022/12/26 18:42:13;;;;;;;58.63;32.92;;;;;;;;;;4973589;28;20031;-71
2022/12/26 18:44:39;;;;;;;67.25;35.22;;;;;;;;;;4973469;28;20023;-68
2022/12/26 18:47:05;;;;;;;64.05;35.40;;;;;;;;;;4973484;28;20038;-69
2022/12/26 18:49:31;;;;;;;67.78;37.67;;;;;;;;;;4973648;28;20053;-72
2022/12/26 18:51:57;;;;;;;77.57;42.28;;;;;;;;;;4973693;28;20027;-69
2022/12/26 18:54:23;;;;;;;83.05;43.78;;;;;;;;;;4973299;28;20153;-68
2022/12/26 18:56:49;;;;;;;85.88;45.25;;;;;;;;;;4973443;28;20443;-63
2022/12/26 18:59:15;;;;;;;97.07;47.83;;;;;;;;;;4973173;28;20129;-64
2022/12/26 19:01:41;;;;;;;88.88;47.67;;;;;;;;;;4973584;28;20033;-69
2022/12/26 19:04:08;;;;;;;94.28;49.42;;;;;;;;;;4973383;28;20066;-68
2022/12/26 19:06:34;;;;;;;100.13;49.47;;;;;;;;;;4973165;28;20110;-69
2022/12/26 19:09:01;;;;;;;93.55;46.90;;;;;;;;;;4973071;28;20039;-69
2022/12/26 19:11:27;;;;;;;89.57;47.33;;;;;;;;;;4973029;28;20035;-67
2022/12/26 19:13:53;;;;;;;91.10;47.55;;;;;;;;;;4972351;28;20390;-67
2022/12/26 19:16:21;;;;;;;82.10;40.67;;;;;;;;;;4972707;28;20047;-69
2022/12/26 19:18:47;;;;;;;74.47;37.38;;;;;;;;;;4972575;28;20035;-68
2022/12/26 19:21:14;;;;;;;63.85;32.92;;;;;;;;;;4973038;28;20041;-67
2022/12/26 19:23:41;;;;;;;78.75;38.60;;;;;;;;;;4972361;28;20015;-68
2022/12/26 19:26:08;;;;;;;81.07;39.42;;;;;;;;;;4972457;28;20030;-66
2022/12/26 19:28:34;;;;;;;78.43;42.53;;;;;;;;;;4972271;28;20042;-66
2022/12/26 19:31:05;;;;;;;73.93;39.92;;;;;;;;;;4972659;28;20023;-68
2022/12/26 19:33:31;;;;;;;59.28;30.83;;;;;;;;;;4964538;28;20031;-69
2022/12/26 19:35:57;;;;;;;71.93;39.20;;;;;;;;;;4972477;28;20027;-69
2022/12/26 19:38:23;;;;;;;69.60;36.60;;;;;;;;;;4971623;28;20026;-69
2022/12/26 19:40:49;;;;;;;84.15;41.08;;;;;;;;;;4972086;28;20169;-69
2022/12/26 19:43:15;;;;;;;78.30;41.13;;;;;;;;;;4972450;28;20486;-64
2022/12/26 19:45:41;;;;;;;73.80;41.45;;;;;;;;;;4972395;28;20023;-66
2022/12/26 19:48:08;;;;;;;76.22;42.10;;;;;;;;;;4971987;28;20158;-65
2022/12/26 19:50:34;;;;;;;75.22;41.13;;;;;;;;;;4972472;28;20034;-68
2022/12/26 19:53:00;;;;;;;71.55;39.45;;;;;;;;;;4971981;28;20026;-63
2022/12/26 19:55:26;;;;;;;78.20;41.97;;;;;;;;;;4972384;28;20553;-63
2022/12/26 19:57:52;;;;;;;94.22;46.90;;;;;;;;;;4972321;28;20027;-66
2022/12/26 20:00:18;;;;;;;95.28;51.08;;;;;;;;;;4971990;28;20019;-68
2022/12/26 20:05:59;;;;;;;75.65;40.00;;;;;;;;;;5374896;23;20085;-62
2022/12/26 20:08:25;;;;;;;100.30;51.05;;;;;;;;;;5011109;28;20041;-62
2022/12/26 20:10:51;;;;;;;87.40;44.63;;;;;;;;;;5009616;28;20363;-62
2022/12/26 20:13:17;;;;;;;70.20;36.92;;;;;;;;;;5011516;28;20097;-62
2022/12/26 20:15:43;;;;;;;75.82;41.47;;;;;;;;;;5010754;28;20037;-67
2022/12/26 20:18:09;;;;;;;76.85;43.15;;;;;;;;;;5011037;28;20040;-65
2022/12/26 20:20:35;;;;;;;72.30;39.90;;;;;;;;;;5009653;28;20022;-65
2022/12/26 20:23:01;;;;;;;71.60;39.58;;;;;;;;;;5011790;28;20049;-62
2022/12/26 20:25:27;;;;;;;67.20;37.90;;;;;;;;;;5033480;28;20029;-64
2022/12/26 20:27:53;;;;;;;73.07;37.75;;;;;;;;;;5033846;28;20103;-65
2022/12/26 20:30:19;;;;;;;67.35;38.35;;;;;;;;;;5034724;28;20030;-67
2022/12/26 20:32:46;;;;;;;65.20;33.40;;;;;;;;;;5034572;28;20075;-64
2022/12/26 20:35:12;;;;;;;59.92;34.47;;;;;;;;;;5034321;28;20014;-62
2022/12/26 20:37:38;;;;;;;59.63;32.17;;;;;;;;;;5034556;28;20063;-61
2022/12/26 20:40:05;;;;;;;61.88;32.80;;;;;;;;;;5034551;28;20022;-64
2022/12/26 20:42:31;;;;;;;46.13;24.38;;;;;;;;;;5034646;28;20032;-62
2022/12/26 20:44:57;;;;;;;35.60;19.95;;;;;;;;;;5034506;28;20106;-68
2022/12/26 20:47:23;;;;;;;36.05;20.75;;;;;;;;;;5034059;28;20060;-63
2022/12/26 20:49:49;;;;;;;32.05;17.83;;;;;;;;;;5034378;28;20052;-61
2022/12/26 20:52:17;;;;;;;40.03;21.17;;;;;;;;;;5034379;28;20381;-62
2022/12/26 20:54:43;;;;;;;40.20;22.27;;;;;;;;;;5033699;28;20029;-63
2022/12/26 20:57:09;;;;;;;33.88;18.73;;;;;;;;;;5034350;28;20052;-67